sensor_id;sensor_type;location;lat;lon;timestamp;P1;durP1;ratioP1;P2;durP2;ratioP2
50012;SDS011;35901;48.694;9.476;2023-06-22T00:00:51;10.83;;;9.57;;
50012;SDS011;35901;48.694;9.476;2023-06-22T00:03:18;9.77;;;8.83;;
50012;SDS011;35901;48.694;9.476;2023-06-22T00:05:45;9.90;;;8.90;;
50012;SDS011;35901;48.694;9.476;2023-06-22T00:08:11;10.33;;;9.30;;
50012;SDS011;35901;48.694;9.476;2023-06-22T00:10:38;10.63;;;9.63;;
50012;SDS011;35901;48.694;9.476;2023-06-22T00:13:04;10.27;;;8.93;;
50012;SDS011;35901;48.694;9.476;2023-06-22T00:15:30;10.90;;;9.03;;
50012;SDS011;35901;48.694;9.476;2023-06-22T00:17:56;11.13;;;9.43;;
50012;SDS011;35901;48.694;9.476;2023-06-22T00:20:22;10.47;;;9.20;;
50012;SDS011;35901;48.694;9.476;2023-06-22T00:22:56;10.00;;;9.00;;
50012;SDS011;35901;48.694;9.476;2023-06-22T00:25:23;11.27;;;10.03;;
50012;SDS011;35901;48.694;9.476;2023-06-22T00:27:49;11.13;;;10.00;;
50012;SDS011;35901;48.694;9.476;2023-06-22T00:30:16;10.17;;;9.27;;
50012;SDS011;35901;48.694;9.476;2023-06-22T00:32:43;10.93;;;9.93;;
50012;SDS011;35901;48.694;9.476;2023-06-22T00:35:09;10.77;;;9.60;;
50012;SDS011;35901;48.694;9.476;2023-06-22T00:37:35;11.03;;;10.00;;
50012;SDS011;35901;48.694;9.476;2023-06-22T00:40:02;11.57;;;10.43;;
50012;SDS011;35901;48.694;9.476;2023-06-22T00:42:29;11.37;;;10.27;;
50012;SDS011;35901;48.694;9.476;2023-06-22T00:44:55;10.90;;;9.87;;
50012;SDS011;35901;48.694;9.476;2023-06-22T00:47:22;12.20;;;11.00;;
50012;SDS011;35901;48.694;9.476;2023-06-22T00:49:49;11.80;;;10.70;;
50012;SDS011;35901;48.694;9.476;2023-06-22T00:52:18;10.83;;;9.93;;
50012;SDS011;35901;48.694;9.476;2023-06-22T00:54:48;11.13;;;10.03;;
50012;SDS011;35901;48.694;9.476;2023-06-22T00:57:15;13.73;;;12.40;;
50012;SDS011;35901;48.694;9.476;2023-06-22T00:59:44;13.67;;;12.37;;
50012;SDS011;35901;48.694;9.476;2023-06-22T01:02:10;13.20;;;12.07;;
50012;SDS011;35901;48.694;9.476;2023-06-22T01:04:37;13.97;;;12.57;;
50012;SDS011;35901;48.694;9.476;2023-06-22T01:09:57;12.30;;;11.03;;
50012;SDS011;35901;48.694;9.476;2023-06-22T01:12:32;13.17;;;11.77;;
50012;SDS011;35901;48.694;9.476;2023-06-22T01:17:35;11.87;;;10.77;;
50012;SDS011;35901;48.694;9.476;2023-06-22T01:20:05;11.77;;;10.67;;
50012;SDS011;35901;48.694;9.476;2023-06-22T01:22:38;10.63;;;9.67;;
50012;SDS011;35901;48.694;9.476;2023-06-22T01:28:45;10.53;;;9.53;;
50012;SDS011;35901;48.694;9.476;2023-06-22T01:31:14;9.87;;;8.97;;
50012;SDS011;35901;48.694;9.476;2023-06-22T01:33:44;10.40;;;9.50;;
50012;SDS011;35901;48.694;9.476;2023-06-22T01:36:13;11.53;;;10.30;;
50012;SDS011;35901;48.694;9.476;2023-06-22T01:38:39;11.40;;;10.30;;
50012;SDS011;35901;48.694;9.476;2023-06-22T01:41:07;11.17;;;10.07;;
50012;SDS011;35901;48.694;9.476;2023-06-22T01:43:32;10.00;;;9.00;;
50012;SDS011;35901;48.694;9.476;2023-06-22T01:46:01;11.80;;;10.70;;
50012;SDS011;35901;48.694;9.476;2023-06-22T01:48:27;9.90;;;9.00;;
50012;SDS011;35901;48.694;9.476;2023-06-22T01:50:54;13.50;;;12.20;;
50012;SDS011;35901;48.694;9.476;2023-06-22T01:53:23;11.40;;;10.40;;
50012;SDS011;35901;48.694;9.476;2023-06-22T01:55:51;11.40;;;10.40;;
50012;SDS011;35901;48.694;9.476;2023-06-22T01:58:17;11.40;;;10.20;;
50012;SDS011;35901;48.694;9.476;2023-06-22T02:00:56;13.27;;;10.77;;
50012;SDS011;35901;48.694;9.476;2023-06-22T02:03:32;14.77;;;12.10;;
50012;SDS011;35901;48.694;9.476;2023-06-22T02:06:10;13.80;;;12.43;;
50012;SDS011;35901;48.694;9.476;2023-06-22T02:08:48;12.93;;;11.70;;
50012;SDS011;35901;48.694;9.476;2023-06-22T02:11:17;13.67;;;12.20;;
50012;SDS011;35901;48.694;9.476;2023-06-22T02:13:45;12.17;;;10.97;;
50012;SDS011;35901;48.694;9.476;2023-06-22T02:16:12;12.57;;;11.37;;
50012;SDS011;35901;48.694;9.476;2023-06-22T02:18:45;13.17;;;12.07;;
50012;SDS011;35901;48.694;9.476;2023-06-22T02:21:15;13.77;;;12.50;;
50012;SDS011;35901;48.694;9.476;2023-06-22T02:23:42;13.53;;;12.17;;
50012;SDS011;35901;48.694;9.476;2023-06-22T02:26:07;13.07;;;11.77;;
50012;SDS011;35901;48.694;9.476;2023-06-22T02:28:33;13.37;;;12.13;;
50012;SDS011;35901;48.694;9.476;2023-06-22T02:30:59;13.77;;;12.47;;
50012;SDS011;35901;48.694;9.476;2023-06-22T02:33:25;12.77;;;11.53;;
50012;SDS011;35901;48.694;9.476;2023-06-22T02:35:50;12.83;;;11.63;;
50012;SDS011;35901;48.694;9.476;2023-06-22T02:38:16;11.83;;;10.60;;
50012;SDS011;35901;48.694;9.476;2023-06-22T02:40:43;13.67;;;12.27;;
50012;SDS011;35901;48.694;9.476;2023-06-22T02:43:09;12.57;;;11.37;;
50012;SDS011;35901;48.694;9.476;2023-06-22T02:45:35;12.73;;;11.43;;
50012;SDS011;35901;48.694;9.476;2023-06-22T02:48:01;13.60;;;12.20;;
50012;SDS011;35901;48.694;9.476;2023-06-22T02:50:27;13.70;;;12.33;;
50012;SDS011;35901;48.694;9.476;2023-06-22T02:52:53;14.30;;;12.90;;
50012;SDS011;35901;48.694;9.476;2023-06-22T02:55:20;15.00;;;13.60;;
50012;SDS011;35901;48.694;9.476;2023-06-22T02:57:52;14.13;;;12.73;;
50012;SDS011;35901;48.694;9.476;2023-06-22T03:00:19;15.10;;;13.60;;
50012;SDS011;35901;48.694;9.476;2023-06-22T03:02:47;13.47;;;12.17;;
50012;SDS011;35901;48.694;9.476;2023-06-22T03:05:14;15.03;;;13.53;;
50012;SDS011;35901;48.694;9.476;2023-06-22T03:07:43;15.50;;;13.87;;
50012;SDS011;35901;48.694;9.476;2023-06-22T03:10:10;15.83;;;14.30;;
50012;SDS011;35901;48.694;9.476;2023-06-22T03:12:37;14.07;;;12.70;;
50012;SDS011;35901;48.694;9.476;2023-06-22T03:15:04;14.40;;;13.00;;
50012;SDS011;35901;48.694;9.476;2023-06-22T03:17:31;14.77;;;13.40;;
50012;SDS011;35901;48.694;9.476;2023-06-22T03:19:57;15.50;;;13.37;;
50012;SDS011;35901;48.694;9.476;2023-06-22T03:22:22;16.03;;;14.43;;
50012;SDS011;35901;48.694;9.476;2023-06-22T03:24:48;18.00;;;13.57;;
50012;SDS011;35901;48.694;9.476;2023-06-22T03:27:14;15.07;;;13.67;;
50012;SDS011;35901;48.694;9.476;2023-06-22T03:29:40;13.47;;;12.10;;
50012;SDS011;35901;48.694;9.476;2023-06-22T03:32:05;14.00;;;12.63;;
50012;SDS011;35901;48.694;9.476;2023-06-22T03:34:32;13.97;;;12.50;;
50012;SDS011;35901;48.694;9.476;2023-06-22T03:37:03;14.13;;;12.47;;
50012;SDS011;35901;48.694;9.476;2023-06-22T03:39:29;14.23;;;12.80;;
50012;SDS011;35901;48.694;9.476;2023-06-22T03:41:56;16.43;;;14.57;;
50012;SDS011;35901;48.694;9.476;2023-06-22T03:44:23;16.13;;;14.43;;
50012;SDS011;35901;48.694;9.476;2023-06-22T03:46:48;15.17;;;13.43;;
50012;SDS011;35901;48.694;9.476;2023-06-22T03:49:15;14.50;;;12.93;;
50012;SDS011;35901;48.694;9.476;2023-06-22T03:51:40;14.67;;;12.00;;
50012;SDS011;35901;48.694;9.476;2023-06-22T03:54:06;13.00;;;11.43;;
50012;SDS011;35901;48.694;9.476;2023-06-22T03:56:32;13.43;;;11.33;;
50012;SDS011;35901;48.694;9.476;2023-06-22T03:58:58;12.73;;;11.27;;
50012;SDS011;35901;48.694;9.476;2023-06-22T04:01:23;12.70;;;11.40;;
50012;SDS011;35901;48.694;9.476;2023-06-22T04:03:49;12.53;;;11.20;;
50012;SDS011;35901;48.694;9.476;2023-06-22T04:06:15;11.57;;;10.40;;
50012;SDS011;35901;48.694;9.476;2023-06-22T04:08:40;16.50;;;11.87;;
50012;SDS011;35901;48.694;9.476;2023-06-22T04:11:07;12.83;;;11.50;;
50012;SDS011;35901;48.694;9.476;2023-06-22T04:13:32;12.80;;;10.10;;
50012;SDS011;35901;48.694;9.476;2023-06-22T04:15:58;11.20;;;10.10;;
50012;SDS011;35901;48.694;9.476;2023-06-22T04:18:26;12.70;;;10.53;;
50012;SDS011;35901;48.694;9.476;2023-06-22T04:20:51;12.57;;;10.47;;
50012;SDS011;35901;48.694;9.476;2023-06-22T04:23:17;11.50;;;10.33;;
50012;SDS011;35901;48.694;9.476;2023-06-22T04:25:43;11.37;;;10.17;;
50012;SDS011;35901;48.694;9.476;2023-06-22T04:28:08;11.30;;;10.20;;
50012;SDS011;35901;48.694;9.476;2023-06-22T04:30:37;12.57;;;9.87;;
50012;SDS011;35901;48.694;9.476;2023-06-22T04:33:12;10.17;;;9.17;;
50012;SDS011;35901;48.694;9.476;2023-06-22T04:35:40;10.80;;;9.03;;
50012;SDS011;35901;48.694;9.476;2023-06-22T04:38:07;10.60;;;9.17;;
50012;SDS011;35901;48.694;9.476;2023-06-22T04:40:33;11.53;;;10.20;;
50012;SDS011;35901;48.694;9.476;2023-06-22T04:42:58;10.63;;;9.20;;
50012;SDS011;35901;48.694;9.476;2023-06-22T04:45:27;10.60;;;9.50;;
50012;SDS011;35901;48.694;9.476;2023-06-22T04:47:57;10.33;;;9.33;;
50012;SDS011;35901;48.694;9.476;2023-06-22T04:50:22;11.20;;;9.90;;
50012;SDS011;35901;48.694;9.476;2023-06-22T04:52:48;9.60;;;8.70;;
50012;SDS011;35901;48.694;9.476;2023-06-22T04:55:15;9.93;;;8.83;;
50012;SDS011;35901;48.694;9.476;2023-06-22T04:57:46;10.17;;;9.13;;
50012;SDS011;35901;48.694;9.476;2023-06-22T05:00:16;9.97;;;8.97;;
50012;SDS011;35901;48.694;9.476;2023-06-22T05:02:48;9.97;;;8.03;;
50012;SDS011;35901;48.694;9.476;2023-06-22T05:05:14;9.63;;;8.63;;
50012;SDS011;35901;48.694;9.476;2023-06-22T05:07:46;8.40;;;7.60;;
50012;SDS011;35901;48.694;9.476;2023-06-22T05:10:18;10.57;;;9.43;;
50012;SDS011;35901;48.694;9.476;2023-06-22T05:12:44;9.17;;;8.27;;
50012;SDS011;35901;48.694;9.476;2023-06-22T05:15:10;11.17;;;8.37;;
50012;SDS011;35901;48.694;9.476;2023-06-22T05:17:36;9.27;;;8.37;;
50012;SDS011;35901;48.694;9.476;2023-06-22T05:20:08;8.90;;;8.10;;
50012;SDS011;35901;48.694;9.476;2023-06-22T05:22:34;9.87;;;8.20;;
50012;SDS011;35901;48.694;9.476;2023-06-22T05:25:00;11.27;;;8.30;;
50012;SDS011;35901;48.694;9.476;2023-06-22T05:27:26;9.33;;;7.60;;
50012;SDS011;35901;48.694;9.476;2023-06-22T05:29:51;7.23;;;6.30;;
50012;SDS011;35901;48.694;9.476;2023-06-22T05:32:17;8.53;;;7.73;;
50012;SDS011;35901;48.694;9.476;2023-06-22T05:34:43;7.83;;;6.80;;
50012;SDS011;35901;48.694;9.476;2023-06-22T05:37:09;7.40;;;6.70;;
50012;SDS011;35901;48.694;9.476;2023-06-22T05:39:35;7.83;;;7.03;;
50012;SDS011;35901;48.694;9.476;2023-06-22T05:42:04;7.50;;;6.70;;
50012;SDS011;35901;48.694;9.476;2023-06-22T05:44:33;7.97;;;7.13;;
50012;SDS011;35901;48.694;9.476;2023-06-22T05:46:59;6.80;;;6.20;;
50012;SDS011;35901;48.694;9.476;2023-06-22T05:49:24;7.00;;;6.00;;
50012;SDS011;35901;48.694;9.476;2023-06-22T05:51:55;7.87;;;6.30;;
50012;SDS011;35901;48.694;9.476;2023-06-22T05:54:21;6.20;;;5.60;;
50012;SDS011;35901;48.694;9.476;2023-06-22T05:56:47;8.77;;;5.63;;
50012;SDS011;35901;48.694;9.476;2023-06-22T05:59:13;8.73;;;6.00;;
50012;SDS011;35901;48.694;9.476;2023-06-22T06:01:38;7.60;;;6.30;;
50012;SDS011;35901;48.694;9.476;2023-06-22T06:04:05;7.50;;;5.90;;
50012;SDS011;35901;48.694;9.476;2023-06-22T06:06:33;5.70;;;5.20;;
50012;SDS011;35901;48.694;9.476;2023-06-22T06:09:02;6.73;;;5.23;;
50012;SDS011;35901;48.694;9.476;2023-06-22T06:11:32;6.40;;;5.57;;
50012;SDS011;35901;48.694;9.476;2023-06-22T06:13:58;6.70;;;5.20;;
50012;SDS011;35901;48.694;9.476;2023-06-22T06:16:24;6.90;;;5.23;;
50012;SDS011;35901;48.694;9.476;2023-06-22T06:18:50;5.70;;;5.10;;
50012;SDS011;35901;48.694;9.476;2023-06-22T06:21:15;6.17;;;4.80;;
50012;SDS011;35901;48.694;9.476;2023-06-22T06:23:41;5.60;;;4.90;;
50012;SDS011;35901;48.694;9.476;2023-06-22T06:26:07;8.43;;;5.40;;
50012;SDS011;35901;48.694;9.476;2023-06-22T06:28:34;5.73;;;5.13;;
50012;SDS011;35901;48.694;9.476;2023-06-22T06:31:00;6.23;;;4.93;;
50012;SDS011;35901;48.694;9.476;2023-06-22T06:33:26;6.67;;;4.87;;
50012;SDS011;35901;48.694;9.476;2023-06-22T06:35:51;7.00;;;5.10;;
50012;SDS011;35901;48.694;9.476;2023-06-22T06:38:17;5.63;;;4.70;;
50012;SDS011;35901;48.694;9.476;2023-06-22T06:40:43;5.63;;;4.47;;
50012;SDS011;35901;48.694;9.476;2023-06-22T06:43:10;4.67;;;4.10;;
50012;SDS011;35901;48.694;9.476;2023-06-22T06:45:35;5.53;;;4.90;;
50012;SDS011;35901;48.694;9.476;2023-06-22T06:48:01;5.93;;;4.40;;
50012;SDS011;35901;48.694;9.476;2023-06-22T06:50:27;5.50;;;4.70;;
50012;SDS011;35901;48.694;9.476;2023-06-22T06:52:53;5.67;;;4.87;;
50012;SDS011;35901;48.694;9.476;2023-06-22T06:55:19;4.80;;;4.30;;
50012;SDS011;35901;48.694;9.476;2023-06-22T06:57:45;4.90;;;4.40;;
50012;SDS011;35901;48.694;9.476;2023-06-22T07:00:13;5.47;;;4.40;;
50012;SDS011;35901;48.694;9.476;2023-06-22T07:02:41;5.33;;;4.40;;
50012;SDS011;35901;48.694;9.476;2023-06-22T07:05:08;5.30;;;4.60;;
50012;SDS011;35901;48.694;9.476;2023-06-22T07:07:35;6.20;;;4.70;;
50012;SDS011;35901;48.694;9.476;2023-06-22T07:10:01;5.40;;;4.10;;
50012;SDS011;35901;48.694;9.476;2023-06-22T07:12:28;5.07;;;4.37;;
50012;SDS011;35901;48.694;9.476;2023-06-22T07:14:53;7.87;;;4.33;;
50012;SDS011;35901;48.694;9.476;2023-06-22T07:17:25;5.67;;;4.47;;
50012;SDS011;35901;48.694;9.476;2023-06-22T07:19:51;6.17;;;4.40;;
50012;SDS011;35901;48.694;9.476;2023-06-22T07:22:16;7.60;;;4.20;;
50012;SDS011;35901;48.694;9.476;2023-06-22T07:24:42;5.17;;;3.90;;
50012;SDS011;35901;48.694;9.476;2023-06-22T07:27:08;8.03;;;4.03;;
50012;SDS011;35901;48.694;9.476;2023-06-22T07:29:36;8.20;;;4.17;;
50012;SDS011;35901;48.694;9.476;2023-06-22T07:32:02;7.90;;;4.47;;
50012;SDS011;35901;48.694;9.476;2023-06-22T07:34:30;6.20;;;4.57;;
50012;SDS011;35901;48.694;9.476;2023-06-22T07:36:55;6.73;;;4.00;;
50012;SDS011;35901;48.694;9.476;2023-06-22T07:39:21;5.53;;;4.20;;
50012;SDS011;35901;48.694;9.476;2023-06-22T07:41:50;6.57;;;4.33;;
50012;SDS011;35901;48.694;9.476;2023-06-22T07:44:16;7.83;;;4.30;;
50012;SDS011;35901;48.694;9.476;2023-06-22T07:46:42;8.30;;;4.20;;
50012;SDS011;35901;48.694;9.476;2023-06-22T07:49:08;7.90;;;4.73;;
50012;SDS011;35901;48.694;9.476;2023-06-22T07:51:34;8.43;;;4.80;;
50012;SDS011;35901;48.694;9.476;2023-06-22T07:54:00;11.37;;;4.90;;
50012;SDS011;35901;48.694;9.476;2023-06-22T07:56:25;6.40;;;4.37;;
50012;SDS011;35901;48.694;9.476;2023-06-22T07:58:51;8.70;;;4.70;;
50012;SDS011;35901;48.694;9.476;2023-06-22T08:01:18;8.87;;;4.70;;
50012;SDS011;35901;48.694;9.476;2023-06-22T08:03:46;9.20;;;5.20;;
50012;SDS011;35901;48.694;9.476;2023-06-22T08:06:15;6.73;;;4.50;;
50012;SDS011;35901;48.694;9.476;2023-06-22T08:08:41;7.20;;;4.30;;
50012;SDS011;35901;48.694;9.476;2023-06-22T08:11:07;8.90;;;4.70;;
50012;SDS011;35901;48.694;9.476;2023-06-22T08:13:33;8.00;;;4.87;;
50012;SDS011;35901;48.694;9.476;2023-06-22T08:15:59;7.30;;;4.50;;
50012;SDS011;35901;48.694;9.476;2023-06-22T08:18:25;8.10;;;4.77;;
50012;SDS011;35901;48.694;9.476;2023-06-22T08:20:51;6.63;;;4.70;;
50012;SDS011;35901;48.694;9.476;2023-06-22T08:23:16;6.93;;;4.37;;
50012;SDS011;35901;48.694;9.476;2023-06-22T08:25:42;6.63;;;4.40;;
50012;SDS011;35901;48.694;9.476;2023-06-22T08:28:08;8.63;;;4.90;;
50012;SDS011;35901;48.694;9.476;2023-06-22T08:30:34;8.52;;;4.63;;
50012;SDS011;35901;48.694;9.476;2023-06-22T08:32:59;8.40;;;4.50;;
50012;SDS011;35901;48.694;9.476;2023-06-22T08:35:25;8.43;;;4.57;;
50012;SDS011;35901;48.694;9.476;2023-06-22T08:37:51;9.50;;;4.70;;
50012;SDS011;35901;48.694;9.476;2023-06-22T08:40:19;9.48;;;4.78;;
50012;SDS011;35901;48.694;9.476;2023-06-22T08:42:46;9.57;;;4.80;;
50012;SDS011;35901;48.694;9.476;2023-06-22T08:45:12;6.40;;;4.32;;
50012;SDS011;35901;48.694;9.476;2023-06-22T08:47:39;7.18;;;4.28;;
50012;SDS011;35901;48.694;9.476;2023-06-22T08:50:06;7.15;;;4.32;;
50012;SDS011;35901;48.694;9.476;2023-06-22T08:52:33;6.28;;;4.30;;
50012;SDS011;35901;48.694;9.476;2023-06-22T08:54:59;5.10;;;4.32;;
50012;SDS011;35901;48.694;9.476;2023-06-22T08:57:25;6.13;;;3.95;;
50012;SDS011;35901;48.694;9.476;2023-06-22T08:59:51;7.00;;;4.15;;
50012;SDS011;35901;48.694;9.476;2023-06-22T09:02:23;7.50;;;4.45;;
50012;SDS011;35901;48.694;9.476;2023-06-22T09:04:56;7.47;;;4.85;;
50012;SDS011;35901;48.694;9.476;2023-06-22T09:07:22;7.65;;;4.90;;
50012;SDS011;35901;48.694;9.476;2023-06-22T09:09:49;8.13;;;4.72;;
50012;SDS011;35901;48.694;9.476;2023-06-22T09:12:16;8.32;;;4.65;;
50012;SDS011;35901;48.694;9.476;2023-06-22T09:14:42;7.72;;;4.60;;
50012;SDS011;35901;48.694;9.476;2023-06-22T09:17:08;6.35;;;4.50;;
50012;SDS011;35901;48.694;9.476;2023-06-22T09:19:34;5.55;;;4.47;;
50012;SDS011;35901;48.694;9.476;2023-06-22T09:21:59;7.57;;;4.30;;
50012;SDS011;35901;48.694;9.476;2023-06-22T09:24:25;8.13;;;4.80;;
50012;SDS011;35901;48.694;9.476;2023-06-22T09:26:51;6.50;;;4.63;;
50012;SDS011;35901;48.694;9.476;2023-06-22T09:29:16;6.43;;;4.38;;
50012;SDS011;35901;48.694;9.476;2023-06-22T09:31:42;7.07;;;4.53;;
50012;SDS011;35901;48.694;9.476;2023-06-22T09:34:09;8.85;;;4.30;;
50012;SDS011;35901;48.694;9.476;2023-06-22T09:36:34;8.45;;;4.68;;
50012;SDS011;35901;48.694;9.476;2023-06-22T09:39:00;7.45;;;4.43;;
50012;SDS011;35901;48.694;9.476;2023-06-22T09:41:30;6.97;;;4.63;;
50012;SDS011;35901;48.694;9.476;2023-06-22T09:43:56;8.10;;;4.75;;
50012;SDS011;35901;48.694;9.476;2023-06-22T09:46:22;8.70;;;5.22;;
50012;SDS011;35901;48.694;9.476;2023-06-22T09:48:50;7.57;;;4.78;;
50012;SDS011;35901;48.694;9.476;2023-06-22T09:51:16;9.43;;;5.07;;
50012;SDS011;35901;48.694;9.476;2023-06-22T09:53:41;8.18;;;4.90;;
50012;SDS011;35901;48.694;9.476;2023-06-22T09:56:07;6.40;;;4.90;;
50012;SDS011;35901;48.694;9.476;2023-06-22T09:58:36;9.85;;;5.20;;
50012;SDS011;35901;48.694;9.476;2023-06-22T10:01:01;8.55;;;5.55;;
50012;SDS011;35901;48.694;9.476;2023-06-22T10:03:27;10.88;;;5.22;;
50012;SDS011;35901;48.694;9.476;2023-06-22T10:05:53;5.82;;;4.55;;
50012;SDS011;35901;48.694;9.476;2023-06-22T10:08:18;7.80;;;5.10;;
50012;SDS011;35901;48.694;9.476;2023-06-22T10:10:44;6.25;;;4.88;;
50012;SDS011;35901;48.694;9.476;2023-06-22T10:13:10;6.93;;;4.63;;
50012;SDS011;35901;48.694;9.476;2023-06-22T10:15:36;8.40;;;4.70;;
50012;SDS011;35901;48.694;9.476;2023-06-22T10:18:03;8.60;;;5.03;;
50012;SDS011;35901;48.694;9.476;2023-06-22T10:20:28;6.70;;;5.07;;
50012;SDS011;35901;48.694;9.476;2023-06-22T10:22:54;7.00;;;5.10;;
50012;SDS011;35901;48.694;9.476;2023-06-22T10:25:20;10.63;;;4.63;;
50012;SDS011;35901;48.694;9.476;2023-06-22T10:27:47;7.78;;;5.40;;
50012;SDS011;35901;48.694;9.476;2023-06-22T10:30:13;6.70;;;5.00;;
50012;SDS011;35901;48.694;9.476;2023-06-22T10:32:39;7.05;;;5.13;;
50012;SDS011;35901;48.694;9.476;2023-06-22T10:35:05;9.05;;;5.47;;
50012;SDS011;35901;48.694;9.476;2023-06-22T10:37:31;7.97;;;5.43;;
50012;SDS011;35901;48.694;9.476;2023-06-22T10:39:57;7.65;;;5.22;;
50012;SDS011;35901;48.694;9.476;2023-06-22T10:42:23;10.98;;;5.40;;
50012;SDS011;35901;48.694;9.476;2023-06-22T10:44:49;9.85;;;6.00;;
50012;SDS011;35901;48.694;9.476;2023-06-22T10:47:14;7.60;;;5.63;;
50012;SDS011;35901;48.694;9.476;2023-06-22T10:49:40;8.52;;;5.50;;
50012;SDS011;35901;48.694;9.476;2023-06-22T10:52:06;9.48;;;5.43;;
50012;SDS011;35901;48.694;9.476;2023-06-22T10:54:33;8.05;;;5.50;;
50012;SDS011;35901;48.694;9.476;2023-06-22T10:57:00;9.48;;;5.10;;
50012;SDS011;35901;48.694;9.476;2023-06-22T10:59:27;9.77;;;5.53;;
50012;SDS011;35901;48.694;9.476;2023-06-22T11:01:54;9.88;;;5.68;;
50012;SDS011;35901;48.694;9.476;2023-06-22T11:04:20;9.68;;;5.30;;
50012;SDS011;35901;48.694;9.476;2023-06-22T11:06:47;7.18;;;5.00;;
50012;SDS011;35901;48.694;9.476;2023-06-22T11:09:13;8.77;;;5.72;;
50012;SDS011;35901;48.694;9.476;2023-06-22T11:11:43;7.47;;;5.05;;
50012;SDS011;35901;48.694;9.476;2023-06-22T11:14:09;10.38;;;5.47;;
50012;SDS011;35901;48.694;9.476;2023-06-22T11:16:35;8.38;;;5.22;;
50012;SDS011;35901;48.694;9.476;2023-06-22T11:19:01;8.85;;;5.00;;
50012;SDS011;35901;48.694;9.476;2023-06-22T11:21:28;11.00;;;5.60;;
50012;SDS011;35901;48.694;9.476;2023-06-22T11:23:54;8.13;;;5.50;;
50012;SDS011;35901;48.694;9.476;2023-06-22T11:26:19;8.07;;;5.28;;
50012;SDS011;35901;48.694;9.476;2023-06-22T11:28:46;8.90;;;5.50;;
50012;SDS011;35901;48.694;9.476;2023-06-22T11:31:11;7.15;;;5.32;;
50012;SDS011;35901;48.694;9.476;2023-06-22T11:33:37;12.15;;;5.78;;
50012;SDS011;35901;48.694;9.476;2023-06-22T11:36:03;10.52;;;5.85;;
50012;SDS011;35901;48.694;9.476;2023-06-22T11:38:28;11.00;;;5.40;;
50012;SDS011;35901;48.694;9.476;2023-06-22T11:40:55;10.25;;;5.88;;
50012;SDS011;35901;48.694;9.476;2023-06-22T11:43:23;9.25;;;5.07;;
50012;SDS011;35901;48.694;9.476;2023-06-22T11:45:48;11.48;;;5.93;;
50012;SDS011;35901;48.694;9.476;2023-06-22T11:48:14;10.00;;;5.65;;
50012;SDS011;35901;48.694;9.476;2023-06-22T11:50:39;9.63;;;5.47;;
50012;SDS011;35901;48.694;9.476;2023-06-22T11:53:05;8.75;;;5.53;;
50012;SDS011;35901;48.694;9.476;2023-06-22T11:55:31;7.95;;;5.28;;
50012;SDS011;35901;48.694;9.476;2023-06-22T11:57:57;7.93;;;5.03;;
50012;SDS011;35901;48.694;9.476;2023-06-22T12:00:28;11.45;;;4.72;;
50012;SDS011;35901;48.694;9.476;2023-06-22T12:02:57;8.95;;;5.28;;
50012;SDS011;35901;48.694;9.476;2023-06-22T12:05:22;9.70;;;5.75;;
50012;SDS011;35901;48.694;9.476;2023-06-22T12:07:49;9.75;;;5.60;;
50012;SDS011;35901;48.694;9.476;2023-06-22T12:10:15;10.65;;;5.85;;
50012;SDS011;35901;48.694;9.476;2023-06-22T12:12:41;9.68;;;5.57;;
50012;SDS011;35901;48.694;9.476;2023-06-22T12:15:08;8.25;;;5.63;;
50012;SDS011;35901;48.694;9.476;2023-06-22T12:17:35;10.20;;;5.60;;
50012;SDS011;35901;48.694;9.476;2023-06-22T12:20:01;9.63;;;5.57;;
50012;SDS011;35901;48.694;9.476;2023-06-22T12:22:30;8.20;;;5.57;;
50012;SDS011;35901;48.694;9.476;2023-06-22T12:24:57;10.30;;;5.70;;
50012;SDS011;35901;48.694;9.476;2023-06-22T12:27:22;15.68;;;5.65;;
50012;SDS011;35901;48.694;9.476;2023-06-22T12:29:48;9.32;;;5.35;;
50012;SDS011;35901;48.694;9.476;2023-06-22T12:32:14;8.55;;;4.88;;
50012;SDS011;35901;48.694;9.476;2023-06-22T12:34:41;9.02;;;4.95;;
50012;SDS011;35901;48.694;9.476;2023-06-22T12:37:07;11.15;;;5.28;;
50012;SDS011;35901;48.694;9.476;2023-06-22T12:39:33;9.25;;;5.40;;
50012;SDS011;35901;48.694;9.476;2023-06-22T12:41:59;8.90;;;5.18;;
50012;SDS011;35901;48.694;9.476;2023-06-22T12:44:25;8.35;;;5.35;;
50012;SDS011;35901;48.694;9.476;2023-06-22T12:46:50;7.93;;;5.50;;
50012;SDS011;35901;48.694;9.476;2023-06-22T12:49:16;11.82;;;5.53;;
50012;SDS011;35901;48.694;9.476;2023-06-22T12:51:42;9.52;;;4.93;;
50012;SDS011;35901;48.694;9.476;2023-06-22T12:54:09;12.20;;;5.22;;
50012;SDS011;35901;48.694;9.476;2023-06-22T12:56:35;11.02;;;5.25;;
50012;SDS011;35901;48.694;9.476;2023-06-22T12:59:01;10.75;;;5.10;;
50012;SDS011;35901;48.694;9.476;2023-06-22T13:01:32;10.32;;;5.05;;
50012;SDS011;35901;48.694;9.476;2023-06-22T13:03:58;8.82;;;4.90;;
50012;SDS011;35901;48.694;9.476;2023-06-22T13:06:24;13.27;;;5.45;;
50012;SDS011;35901;48.694;9.476;2023-06-22T13:08:50;7.57;;;4.80;;
50012;SDS011;35901;48.694;9.476;2023-06-22T13:11:15;10.48;;;5.45;;
50012;SDS011;35901;48.694;9.476;2023-06-22T13:13:41;10.40;;;5.60;;
50012;SDS011;35901;48.694;9.476;2023-06-22T13:16:07;9.32;;;4.93;;
50012;SDS011;35901;48.694;9.476;2023-06-22T13:18:33;9.75;;;5.35;;
50012;SDS011;35901;48.694;9.476;2023-06-22T13:21:01;8.80;;;5.20;;
50012;SDS011;35901;48.694;9.476;2023-06-22T13:23:27;8.50;;;5.55;;
50012;SDS011;35901;48.694;9.476;2023-06-22T13:25:52;8.98;;;5.70;;
50012;SDS011;35901;48.694;9.476;2023-06-22T13:28:18;9.25;;;5.93;;
50012;SDS011;35901;48.694;9.476;2023-06-22T13:30:45;7.18;;;5.38;;
50012;SDS011;35901;48.694;9.476;2023-06-22T13:33:15;8.90;;;5.50;;
50012;SDS011;35901;48.694;9.476;2023-06-22T13:35:41;9.32;;;5.13;;
50012;SDS011;35901;48.694;9.476;2023-06-22T13:38:10;8.25;;;5.20;;
50012;SDS011;35901;48.694;9.476;2023-06-22T13:40:37;10.10;;;5.35;;
50012;SDS011;35901;48.694;9.476;2023-06-22T13:43:03;10.57;;;5.43;;
50012;SDS011;35901;48.694;9.476;2023-06-22T13:45:29;11.65;;;5.22;;
50012;SDS011;35901;48.694;9.476;2023-06-22T13:47:55;8.60;;;5.13;;
50012;SDS011;35901;48.694;9.476;2023-06-22T13:50:21;11.27;;;5.55;;
50012;SDS011;35901;48.694;9.476;2023-06-22T13:52:47;9.77;;;5.63;;
50012;SDS011;35901;48.694;9.476;2023-06-22T13:55:12;10.35;;;5.25;;
50012;SDS011;35901;48.694;9.476;2023-06-22T13:57:39;11.10;;;5.40;;
50012;SDS011;35901;48.694;9.476;2023-06-22T14:00:06;9.35;;;4.90;;
50012;SDS011;35901;48.694;9.476;2023-06-22T14:02:39;9.82;;;5.20;;
50012;SDS011;35901;48.694;9.476;2023-06-22T14:05:05;8.15;;;4.82;;
50012;SDS011;35901;48.694;9.476;2023-06-22T14:07:31;11.70;;;5.00;;
50012;SDS011;35901;48.694;9.476;2023-06-22T14:09:57;9.40;;;4.80;;
50012;SDS011;35901;48.694;9.476;2023-06-22T14:12:23;9.93;;;4.70;;
50012;SDS011;35901;48.694;9.476;2023-06-22T14:14:49;9.32;;;4.80;;
50012;SDS011;35901;48.694;9.476;2023-06-22T14:17:15;13.05;;;5.10;;
50012;SDS011;35901;48.694;9.476;2023-06-22T14:19:41;8.63;;;5.07;;
50012;SDS011;35901;48.694;9.476;2023-06-22T14:22:06;7.18;;;4.88;;
50012;SDS011;35901;48.694;9.476;2023-06-22T14:24:32;11.50;;;5.07;;
50012;SDS011;35901;48.694;9.476;2023-06-22T14:26:57;9.18;;;4.70;;
50012;SDS011;35901;48.694;9.476;2023-06-22T14:29:23;10.73;;;4.80;;
50012;SDS011;35901;48.694;9.476;2023-06-22T14:31:50;9.85;;;4.82;;
50012;SDS011;35901;48.694;9.476;2023-06-22T14:34:15;9.20;;;4.93;;
50012;SDS011;35901;48.694;9.476;2023-06-22T14:36:41;6.25;;;4.60;;
50012;SDS011;35901;48.694;9.476;2023-06-22T14:39:07;7.90;;;4.47;;
50012;SDS011;35901;48.694;9.476;2023-06-22T14:41:33;7.57;;;4.70;;
50012;SDS011;35901;48.694;9.476;2023-06-22T14:43:59;8.57;;;4.97;;